Time;durP1;ratioP1;P1;durP2;ratioP2;P2;SDS_P1;SDS_P2;PMS_P1;PMS_P2;Temp;Humidity;BMP_temperature;BMP_pressure;BME280_temperature;BME280_humidity;BME280_pressure;Samples;Min_cycle;Max_cycle;Signal;HPM_P1;HPM_P2
2022/12/11 00:00:36;;;;;;;0.00;0.00;;;;;;;16.63;48.60;101244.88;2043742;28;20051;-74
2022/12/11 00:01:39;;;;;;;0.00;0.00;;;;;;;16.64;48.64;101252.66;2037094;28;20108;-74
2022/12/11 00:02:41;;;;;;;0.00;0.00;;;;;;;16.65;48.57;101251.50;2049975;28;20611;-75
2022/12/11 00:03:44;;;;;;;0.00;0.00;;;;;;;16.64;48.78;101252.66;2052634;28;21277;-74
2022/12/11 00:04:46;;;;;;;0.00;0.00;;;;;;;16.65;48.59;101250.75;2051610;28;20081;-74
2022/12/11 00:05:49;;;;;;;0.00;0.00;;;;;;;16.63;48.80;101247.59;2051690;28;20110;-74
2022/12/11 00:06:51;;;;;;;0.00;0.00;;;;;;;16.64;48.80;101251.88;2049906;28;20101;-73
2022/12/11 00:07:56;;;;;;;0.00;0.00;;;;;;;16.63;48.83;101244.88;2052538;28;20129;-74
2022/12/11 00:08:58;;;;;;;0.00;0.00;;;;;;;16.62;48.80;101246.81;2052231;28;20446;-73
2022/12/11 00:10:02;;;;;;;0.00;0.00;;;;;;;16.60;48.65;101238.22;2052459;28;20053;-74
2022/12/11 00:11:06;;;;;;;0.00;0.00;;;;;;;16.62;48.70;101243.31;2051934;28;20063;-74
2022/12/11 00:12:09;;;;;;;0.00;0.00;;;;;;;16.61;48.77;101244.44;2043141;28;20059;-74
2022/12/11 00:13:11;;;;;;;0.00;0.00;;;;;;;16.61;48.79;101234.34;2037514;28;20058;-74
2022/12/11 00:14:15;;;;;;;0.00;0.00;;;;;;;16.62;48.80;101240.59;2044961;28;20145;-74
2022/12/11 00:15:17;;;;;;;0.00;0.00;;;;;;;16.58;48.82;101235.06;2048444;28;20062;-75
2022/12/11 00:16:20;;;;;;;0.00;0.00;;;;;;;16.60;48.89;101242.88;2047309;28;20063;-74
2022/12/11 00:17:27;;;;;;;0.00;0.00;;;;;;;16.59;48.80;101244.03;2051891;28;20533;-75
2022/12/11 00:18:30;;;;;;;0.00;0.00;;;;;;;16.58;48.87;101240.53;2052284;28;20085;-75
2022/12/11 00:19:33;;;;;;;0.00;0.00;;;;;;;16.59;48.91;101235.84;2043027;28;20055;-74
2022/12/11 00:20:36;;;;;;;0.00;0.00;;;;;;;16.59;48.77;101236.63;2037222;29;21254;-73
2022/12/11 00:21:39;;;;;;;0.00;0.00;;;;;;;16.57;48.86;101235.44;2044629;28;20063;-74
2022/12/11 00:22:41;;;;;;;0.00;0.00;;;;;;;16.57;48.87;101238.94;2056438;28;20529;-74
2022/12/11 00:23:44;;;;;;;0.00;0.00;;;;;;;16.57;48.67;101238.19;2055745;28;20762;-75
2022/12/11 00:24:46;;;;;;;0.00;0.00;;;;;;;16.56;48.75;101225.69;2049958;28;20175;-75
2022/12/11 00:25:50;;;;;;;0.00;0.00;;;;;;;16.58;48.90;101240.53;2049937;28;20050;-74
2022/12/11 00:26:52;;;;;;;0.00;0.00;;;;;;;16.56;48.76;101236.59;2049805;28;21528;-74
2022/12/11 00:27:54;;;;;;;0.00;0.00;;;;;;;16.56;48.88;101244.78;2051453;28;20502;-74
2022/12/11 00:28:56;;;;;;;0.00;0.00;;;;;;;16.53;48.79;101242.78;2043521;28;20621;-73
2022/12/11 00:29:59;;;;;;;0.00;0.00;;;;;;;16.56;48.77;101242.03;2042984;28;20070;-75
2022/12/11 00:31:03;;;;;;;0.00;0.00;;;;;;;16.55;48.88;101245.94;2058535;28;20058;-75
2022/12/11 00:32:06;;;;;;;0.00;0.00;;;;;;;16.55;48.80;101240.47;2053436;28;20145;-74
2022/12/11 00:33:09;;;;;;;0.00;0.00;;;;;;;16.55;48.95;101245.94;2051569;28;20089;-74
2022/12/11 00:34:12;;;;;;;0.00;0.00;;;;;;;16.52;48.75;101238.50;2053097;28;20053;-73
2022/12/11 00:35:14;;;;;;;0.00;0.00;;;;;;;16.54;48.76;101244.38;2052477;28;20063;-74
2022/12/11 00:36:20;;;;;;;0.00;0.00;;;;;;;16.55;48.90;101240.47;2052582;28;20501;-74
2022/12/11 00:37:22;;;;;;;0.00;0.00;;;;;;;16.52;48.97;101241.22;2051000;28;20534;-74
2022/12/11 00:38:25;;;;;;;0.00;0.00;;;;;;;16.53;48.83;101240.06;2051134;28;20074;-74
2022/12/11 00:39:27;;;;;;;0.00;0.00;;;;;;;16.52;48.91;101236.56;2050167;28;20055;-74
2022/12/11 00:40:29;;;;;;;0.00;0.00;;;;;;;16.52;48.57;101239.28;2045172;28;20063;-75
2022/12/11 00:41:32;;;;;;;0.00;0.00;;;;;;;16.53;48.78;101237.34;2045419;28;20498;-74
2022/12/11 00:42:35;;;;;;;0.00;0.00;;;;;;;16.51;48.77;101234.22;2061139;28;20050;-74
2022/12/11 00:43:37;;;;;;;0.00;0.00;;;;;;;16.51;48.93;101240.44;2049067;28;20062;-75
2022/12/11 00:44:40;;;;;;;0.00;0.00;;;;;;;16.52;49.01;101238.50;2042501;28;20500;-75
2022/12/11 00:45:44;;;;;;;0.00;0.00;;;;;;;16.51;49.00;101239.66;2044039;28;20047;-74
2022/12/11 00:46:47;;;;;;;0.00;0.00;;;;;;;16.51;48.93;101236.94;2045684;28;20105;-73
2022/12/11 00:47:49;;;;;;;0.00;0.00;;;;;;;16.50;48.95;101240.81;2052645;28;20889;-72
2022/12/11 00:48:52;;;;;;;0.00;0.00;;;;;;;16.50;49.02;101240.81;2058368;28;20056;-73
2022/12/11 00:49:54;;;;;;;0.00;0.00;;;;;;;16.49;48.83;101237.28;2044475;28;20088;-73
2022/12/11 00:50:57;;;;;;;0.00;0.00;;;;;;;16.50;48.94;101251.72;2043531;28;20090;-75
2022/12/11 00:51:59;;;;;;;0.00;0.00;;;;;;;16.49;48.84;101244.69;2052569;28;20064;-73
2022/12/11 00:53:02;;;;;;;0.00;0.00;;;;;;;16.50;48.78;101251.72;2050980;28;20137;-75
2022/12/11 00:54:06;;;;;;;0.00;0.00;;;;;;;16.47;48.99;101238.81;2050111;28;20455;-75
2022/12/11 00:55:08;;;;;;;0.00;0.00;;;;;;;16.48;48.82;101251.28;2050898;28;20142;-75
2022/12/11 00:56:13;;;;;;;0.00;0.00;;;;;;;16.47;49.17;101245.06;2042916;28;20054;-76
2022/12/11 00:57:16;;;;;;;0.00;0.00;;;;;;;16.48;49.02;101245.84;2043678;28;20047;-74
2022/12/11 00:58:19;;;;;;;0.00;0.00;;;;;;;16.44;48.58;101252.03;2050978;28;20062;-75
2022/12/11 00:59:21;;;;;;;0.00;0.00;;;;;;;16.46;48.95;101245.44;2050408;28;20051;-74
2022/12/11 01:00:26;;;;;;;0.00;0.00;;;;;;;16.46;48.98;101248.16;2049409;28;20495;-74
2022/12/11 01:01:29;;;;;;;0.00;0.00;;;;;;;16.47;49.06;101249.72;2049867;28;20528;-74
2022/12/11 01:02:31;;;;;;;0.00;0.00;;;;;;;16.45;48.96;101250.09;2052621;28;20050;-75
2022/12/11 01:03:33;;;;;;;0.00;0.00;;;;;;;16.45;49.08;101252.81;2058212;28;20089;-74
2022/12/11 01:04:37;;;;;;;0.00;0.00;;;;;;;16.43;48.85;101247.72;2050094;28;20072;-74
2022/12/11 01:05:39;;;;;;;0.00;0.00;;;;;;;16.43;48.94;101250.44;2053189;28;20089;-75
2022/12/11 01:06:44;;;;;;;0.00;0.00;;;;;;;16.44;48.90;101252.03;2049746;28;20775;-75
2022/12/11 01:07:45;;;;;;;0.00;0.00;;;;;;;16.44;49.07;101252.03;2051865;28;20138;-75
2022/12/11 01:10:22;;;;;;;0.00;0.00;;;;;;;16.44;49.04;101252.03;2051868;28;20824;-75
2022/12/11 01:10:23;;;;;;;0.00;0.00;;;;;;;16.40;49.14;101258.56;2052583;28;20050;-75
2022/12/11 01:11:26;;;;;;;0.00;0.00;;;;;;;16.36;49.07;101250.31;2052832;28;20087;-75
2022/12/11 01:12:30;;;;;;;0.00;0.00;;;;;;;16.39;49.01;101246.84;2051027;28;20070;-75
2022/12/11 01:13:32;;;;;;;0.00;0.00;;;;;;;16.39;48.94;101252.31;2051185;28;20055;-75
2022/12/11 01:14:35;;;;;;;0.00;0.00;;;;;;;16.39;49.11;101259.72;2048141;28;20102;-75
2022/12/11 01:15:39;;;;;;;0.00;0.00;;;;;;;16.41;49.03;101255.47;2050141;28;20051;-75
2022/12/11 01:16:44;;;;;;;0.00;0.00;;;;;;;16.38;49.04;101258.94;2051480;28;20494;-75
2022/12/11 01:17:46;;;;;;;0.00;0.00;;;;;;;16.39;48.94;101259.72;2052104;28;20054;-75
2022/12/11 01:18:48;;;;;;;0.00;0.00;;;;;;;16.38;49.42;101258.13;2052022;28;20054;-75
2022/12/11 01:19:52;;;;;;;0.00;0.00;;;;;;;16.39;48.92;101260.50;2051297;28;20105;-75
2022/12/11 01:20:55;;;;;;;0.00;0.00;;;;;;;16.39;48.95;101265.94;2051263;28;20055;-74
2022/12/11 01:21:57;;;;;;;0.00;0.00;;;;;;;16.34;49.07;101258.09;2052070;28;20069;-74
2022/12/11 01:23:00;;;;;;;0.00;0.00;;;;;;;16.39;49.13;101271.38;2051177;28;20050;-74
2022/12/11 01:24:03;;;;;;;0.00;0.00;;;;;;;16.38;48.94;101258.13;2049295;28;20062;-74
2022/12/11 01:25:06;;;;;;;0.00;0.00;;;;;;;16.38;48.97;101269.81;2049171;28;20054;-74
2022/12/11 01:26:10;;;;;;;0.00;0.00;;;;;;;16.37;49.13;101268.25;2049950;28;20556;-74
2022/12/11 01:27:13;;;;;;;0.00;0.00;;;;;;;16.37;49.09;101279.16;2060633;28;20058;-74
2022/12/11 01:28:17;;;;;;;0.00;0.00;;;;;;;16.38;48.96;101274.47;2060190;28;20117;-75
2022/12/11 01:29:19;;;;;;;0.00;0.00;;;;;;;16.37;49.02;101272.91;2060708;28;20058;-75
2022/12/11 01:30:24;;;;;;;0.00;0.00;;;;;;;16.37;48.95;101268.25;2054465;28;20421;-74
2022/12/11 01:31:26;;;;;;;0.00;0.00;;;;;;;16.35;49.15;101275.22;2045762;28;20707;-74
2022/12/11 01:32:29;;;;;;;0.00;0.00;;;;;;;16.35;49.27;101269.78;2054502;28;20063;-74
2022/12/11 01:33:31;;;;;;;0.00;0.00;;;;;;;16.35;48.82;101267.84;2051409;28;20055;-74
2022/12/11 01:34:33;;;;;;;0.00;0.00;;;;;;;16.35;48.97;101276.03;2050103;28;20058;-73
2022/12/11 01:35:35;;;;;;;0.00;0.00;;;;;;;16.32;48.98;101274.03;2061004;28;20054;-74
2022/12/11 01:36:38;;;;;;;0.00;0.00;;;;;;;16.35;49.14;101276.03;2068254;28;21030;-74
2022/12/11 01:37:40;;;;;;;0.00;0.00;;;;;;;16.33;49.39;101270.13;2059073;28;20054;-74
2022/12/11 01:38:43;;;;;;;0.00;0.00;;;;;;;16.32;49.09;101271.31;2055075;28;20756;-74
2022/12/11 01:39:44;;;;;;;0.00;0.00;;;;;;;16.35;49.16;101276.03;2054560;28;20059;-74
2022/12/11 01:40:48;;;;;;;0.00;0.00;;;;;;;16.35;49.19;101278.75;2052325;28;20051;-74
2022/12/11 01:41:50;;;;;;;0.10;0.10;;;;;;;16.33;49.13;101272.09;2055050;28;20051;-74
2022/12/11 01:42:53;;;;;;;0.00;0.00;;;;;;;16.35;48.97;101275.22;2052884;28;20050;-74
2022/12/11 01:44:01;;;;;;;0.00;0.00;;;;;;;16.35;49.06;101286.91;2051963;28;20137;-74
2022/12/11 01:45:34;;;;;;;0.00;0.00;;;;;;;16.25;49.29;101284.81;2051420;28;20066;-72
2022/12/11 01:46:36;;;;;;;0.00;0.00;;;;;;;16.28;49.28;101277.88;2063443;28;20682;-74
2022/12/11 01:47:39;;;;;;;0.00;0.00;;;;;;;16.30;49.06;101283.72;2061031;28;20065;-74
2022/12/11 01:48:40;;;;;;;0.00;0.00;;;;;;;16.31;49.28;101286.09;2062261;28;20050;-72
2022/12/11 01:49:44;;;;;;;0.00;0.00;;;;;;;16.31;49.11;101277.91;2054469;28;20055;-74
2022/12/11 01:50:48;;;;;;;0.00;0.00;;;;;;;16.32;49.17;101282.22;2053723;28;20054;-74
2022/12/11 01:51:55;;;;;;;0.00;0.00;;;;;;;16.30;49.20;101284.50;2045715;28;20059;-73
2022/12/11 01:52:57;;;;;;;0.00;0.00;;;;;;;16.30;49.17;101281.78;2052898;28;20055;-73
2022/12/11 01:54:05;;;;;;;0.00;0.00;;;;;;;16.31;49.25;101277.13;2059215;28;20134;-73
2022/12/11 01:55:08;;;;;;;0.00;0.00;;;;;;;16.29;49.16;101282.94;2061073;28;20065;-73
2022/12/11 01:56:12;;;;;;;0.00;0.00;;;;;;;16.30;49.31;101278.25;2061180;28;20221;-74
2022/12/11 01:57:15;;;;;;;0.00;0.00;;;;;;;16.27;49.35;101271.63;2052023;28;20051;-74
2022/12/11 01:58:20;;;;;;;0.00;0.00;;;;;;;16.30;49.22;101273.59;2052080;28;20057;-74
2022/12/11 01:59:27;;;;;;;0.00;0.00;;;;;;;16.29;49.01;101272.03;2051015;28;20050;-75
2022/12/11 02:00:30;;;;;;;0.00;0.00;;;;;;;16.28;49.14;101275.13;2052369;28;20718;-75
2022/12/11 02:01:36;;;;;;;0.00;0.00;;;;;;;16.28;49.04;101270.47;2052117;28;20050;-75
2022/12/11 02:02:39;;;;;;;0.00;0.00;;;;;;;16.25;49.19;101271.19;2043029;28;20051;-74
2022/12/11 02:03:41;;;;;;;0.00;0.00;;;;;;;16.28;49.29;101272.41;2042752;28;20051;-74
2022/12/11 02:04:47;;;;;;;0.00;0.00;;;;;;;16.29;49.27;101274.78;2052087;28;20051;-74
2022/12/11 02:05:50;;;;;;;0.00;0.00;;;;;;;16.28;49.23;101275.13;2046551;28;20055;-74
2022/12/11 02:06:52;;;;;;;0.00;0.00;;;;;;;16.28;49.21;101275.13;2046644;28;20062;-74
2022/12/11 02:07:58;;;;;;;0.00;0.00;;;;;;;16.28;49.02;101266.97;2054323;28;20051;-75
2022/12/11 02:09:01;;;;;;;0.00;0.00;;;;;;;16.26;49.16;101267.34;2052189;28;21167;-75
2022/12/11 02:10:05;;;;;;;0.00;0.00;;;;;;;16.26;49.62;101261.88;2052259;28;20490;-75
2022/12/11 02:11:16;;;;;;;0.00;0.00;;;;;;;16.26;49.54;101264.59;2053842;28;20126;-75
2022/12/11 02:12:23;;;;;;;;;;;;;;;16.06;49.76;101265.09;2055752;28;20055;-75
2022/12/11 02:13:35;;;;;;;0.00;0.00;;;;;;;16.16;49.44;101264.44;2043981;28;19934;-75
2022/12/11 02:14:43;;;;;;;0.00;0.00;;;;;;;16.18;49.35;101264.88;2052023;28;20054;-75
2022/12/11 02:15:50;;;;;;;0.00;0.00;;;;;;;16.20;49.24;101268.81;2051125;28;20070;-75
2022/12/11 02:16:58;;;;;;;0.00;0.00;;;;;;;16.21;49.41;101264.13;2052527;28;20146;-75
2022/12/11 02:18:13;;;;;;;0.00;0.00;;;;;;;16.18;49.04;101254.75;2055107;28;20534;-75
2022/12/11 02:19:30;;;;;;;0.00;0.00;;;;;;;16.17;49.32;101266.03;2053338;28;20058;-75
2022/12/11 02:20:37;;;;;;;0.00;0.00;;;;;;;16.18;49.35;101252.03;2055352;28;20431;-75
2022/12/11 02:21:45;;;;;;;0.00;0.00;;;;;;;16.20;49.46;101251.66;2054337;28;20054;-73
2022/12/11 02:23:06;;;;;;;0.00;0.00;;;;;;;16.15;49.51;101250.06;2051779;28;20089;-76
2022/12/11 02:24:32;;;;;;;0.00;0.00;;;;;;;16.10;49.58;101244.91;2059564;28;20530;-75
2022/12/11 02:25:41;;;;;;;0.00;0.00;;;;;;;16.15;49.56;101250.06;2058018;28;20077;-74
2022/12/11 02:27:08;;;;;;;0.00;0.00;;;;;;;16.13;49.42;101252.34;2051514;28;20550;-74
2022/12/11 02:28:19;;;;;;;0.00;0.00;;;;;;;16.11;49.47;101254.66;2055626;28;20476;-74
2022/12/11 02:29:29;;;;;;;0.00;0.00;;;;;;;16.13;49.50;101244.19;2053816;28;20055;-74
2022/12/11 02:30:35;;;;;;;0.00;0.00;;;;;;;16.12;49.47;101245.34;2052693;28;20474;-74
2022/12/11 02:31:43;;;;;;;0.00;0.00;;;;;;;16.15;49.39;101250.06;2051971;28;20485;-74
2022/12/11 02:32:51;;;;;;;0.00;0.00;;;;;;;16.15;49.30;101250.06;2050792;28;20485;-74
2022/12/11 02:34:00;;;;;;;0.00;0.00;;;;;;;16.14;49.45;101253.91;2053235;28;20054;-75
2022/12/11 02:35:10;;;;;;;0.00;0.00;;;;;;;16.13;49.43;101254.28;2051613;28;20039;-75
2022/12/11 02:36:15;;;;;;;0.00;0.00;;;;;;;16.14;49.59;101251.19;2053899;28;20050;-74
2022/12/11 02:37:21;;;;;;;0.00;0.00;;;;;;;16.15;49.30;101257.44;2044096;28;20043;-74
2022/12/11 02:38:28;;;;;;;0.00;0.00;;;;;;;16.15;49.42;101252.78;2052905;28;20054;-74
2022/12/11 02:39:34;;;;;;;0.00;0.00;;;;;;;16.13;49.52;101252.34;2058851;28;20127;-75
2022/12/11 02:40:38;;;;;;;0.00;0.00;;;;;;;16.13;49.49;101254.28;2045247;28;20085;-74
2022/12/11 02:41:45;;;;;;;0.00;0.00;;;;;;;16.15;49.46;101255.50;2051893;28;20059;-75
2022/12/11 02:42:49;;;;;;;0.00;0.00;;;;;;;16.15;49.40;101243.81;2059112;28;20422;-75
2022/12/11 02:43:56;;;;;;;0.00;0.00;;;;;;;16.15;49.42;101250.06;2060326;28;20096;-75
2022/12/11 02:45:00;;;;;;;0.00;0.00;;;;;;;16.15;49.40;101250.06;2050952;28;20490;-74
2022/12/11 02:46:06;;;;;;;0.00;0.00;;;;;;;16.16;49.55;101256.25;2050660;28;20092;-75
2022/12/11 02:47:12;;;;;;;0.00;0.00;;;;;;;16.15;49.37;101250.06;2051464;28;20066;-75
2022/12/11 02:48:17;;;;;;;0.00;0.00;;;;;;;16.13;49.39;101246.91;2051312;28;20062;-74
2022/12/11 02:49:21;;;;;;;0.00;0.00;;;;;;;16.15;49.54;101243.81;2053291;28;20722;-74
2022/12/11 02:50:24;;;;;;;0.00;0.00;;;;;;;16.16;49.54;101250.81;2050811;28;20514;-74
2022/12/11 02:51:31;;;;;;;0.00;0.00;;;;;;;16.16;49.49;101251.63;2053811;28;20062;-73
2022/12/11 02:52:34;;;;;;;0.00;0.00;;;;;;;16.15;49.47;101247.31;2052278;28;20047;-74
2022/12/11 02:53:39;;;;;;;0.00;0.00;;;;;;;16.14;49.56;101243.00;2049789;28;20475;-74
2022/12/11 02:54:44;;;;;;;0.00;0.00;;;;;;;16.15;49.61;101250.06;2050359;28;20127;-74
2022/12/11 02:55:51;;;;;;;0.00;0.00;;;;;;;16.10;49.61;101230.50;2051184;28;20426;-74
2022/12/11 02:57:00;;;;;;;0.00;0.00;;;;;;;16.13;49.47;101241.44;2059763;28;20117;-74
2022/12/11 02:58:07;;;;;;;0.00;0.00;;;;;;;16.12;49.47;101241.81;2060033;28;20544;-74
2022/12/11 02:59:17;;;;;;;0.00;0.00;;;;;;;16.13;49.47;101240.66;2050327;28;20454;-74
2022/12/11 03:00:20;;;;;;;;;;;;;;;15.93;50.02;101242.72;2047846;28;20055;-74
2022/12/11 03:01:23;;;;;;;0.00;0.00;;;;;;;16.03;49.72;101233.91;2043163;28;19962;-75
2022/12/11 03:02:25;;;;;;;0.00;0.00;;;;;;;16.09;49.71;101237.13;2046756;28;20742;-74
2022/12/11 03:03:29;;;;;;;0.00;0.00;;;;;;;16.11;49.44;101240.25;2043975;28;20090;-74
2022/12/11 03:04:34;;;;;;;0.00;0.00;;;;;;;16.12;49.63;101230.94;2048856;28;20059;-74
2022/12/11 03:05:37;;;;;;;0.00;0.00;;;;;;;16.11;49.68;101227.41;2050945;28;20191;-74
2022/12/11 03:06:43;;;;;;;0.00;0.00;;;;;;;16.12;49.57;101234.44;2054587;28;20494;-75
2022/12/11 03:07:46;;;;;;;0.00;0.00;;;;;;;16.09;49.65;101224.25;2054914;28;20086;-75
2022/12/11 03:08:50;;;;;;;0.00;0.00;;;;;;;16.12;49.54;101229.00;2053699;28;20054;-74
2022/12/11 03:09:53;;;;;;;0.00;0.00;;;;;;;16.11;49.68;101227.41;2051349;28;20055;-74
2022/12/11 03:10:56;;;;;;;0.00;0.00;;;;;;;16.11;49.73;101232.84;2052579;28;20054;-73
2022/12/11 03:11:58;;;;;;;0.00;0.00;;;;;;;16.11;49.65;101227.41;2045194;28;20051;-74
2022/12/11 03:13:02;;;;;;;0.00;0.00;;;;;;;16.11;49.68;101232.09;2053388;28;20102;-74
2022/12/11 03:14:05;;;;;;;0.00;0.00;;;;;;;16.12;49.52;101226.28;2053881;28;20065;-74
2022/12/11 03:15:13;;;;;;;0.00;0.00;;;;;;;16.13;49.61;101227.84;2043935;28;20056;-74
2022/12/11 03:16:28;;;;;;;0.00;0.00;;;;;;;16.09;49.58;101232.44;2047333;28;20253;-74
2022/12/11 03:17:38;;;;;;;0.00;0.00;;;;;;;16.09;49.60;101229.72;2054816;28;20065;-73
2022/12/11 03:18:48;;;;;;;0.00;0.00;;;;;;;16.09;49.44;101231.66;2055184;28;20082;-74
2022/12/11 03:20:00;;;;;;;0.00;0.00;;;;;;;16.07;49.66;101225.78;2053383;28;20112;-74
2022/12/11 03:21:05;;;;;;;0.00;0.00;;;;;;;16.08;49.56;101228.16;2053552;28;20058;-73
2022/12/11 03:22:14;;;;;;;0.00;0.00;;;;;;;16.09;49.58;101221.53;2053545;28;20050;-73
2022/12/11 03:23:21;;;;;;;0.00;0.00;;;;;;;16.09;49.66;101224.25;2054701;28;20129;-73
2022/12/11 03:24:30;;;;;;;0.00;0.00;;;;;;;16.08;49.71;101230.88;2043725;28;20051;-73
2022/12/11 03:25:39;;;;;;;0.00;0.00;;;;;;;16.05;49.46;101212.53;2045704;28;20047;-73
2022/12/11 03:26:46;;;;;;;0.00;0.00;;;;;;;16.09;49.63;101218.03;2053928;28;20059;-74
2022/12/11 03:27:56;;;;;;;0.00;0.00;;;;;;;16.07;49.47;101223.06;2053378;28;20694;-73
2022/12/11 03:29:02;;;;;;;0.00;0.00;;;;;;;16.07;49.59;101223.88;2054938;28;20062;-74
2022/12/11 03:30:08;;;;;;;0.00;0.00;;;;;;;16.08;49.57;101221.91;2053335;28;20054;-74
2022/12/11 03:31:18;;;;;;;0.00;0.00;;;;;;;16.08;49.47;101225.44;2053153;28;20070;-73
2022/12/11 03:32:26;;;;;;;0.00;0.00;;;;;;;16.07;49.66;101218.41;2060889;28;20161;-73
2022/12/11 03:33:34;;;;;;;0.00;0.00;;;;;;;16.05;49.59;101223.44;2066590;28;20049;-73
2022/12/11 03:34:43;;;;;;;0.00;0.00;;;;;;;16.05;49.65;101228.88;2059942;28;20047;-73
2022/12/11 03:35:50;;;;;;;0.00;0.00;;;;;;;16.07;49.42;101223.06;2045602;28;20051;-73
2022/12/11 03:36:56;;;;;;;0.00;0.00;;;;;;;16.04;49.66;101227.31;2045586;28;20051;-74
2022/12/11 03:38:02;;;;;;;0.00;0.00;;;;;;;16.08;49.70;101230.06;2053365;28;20133;-74
2022/12/11 03:39:09;;;;;;;0.00;0.00;;;;;;;16.08;49.52;101228.16;2053801;28;20063;-73
2022/12/11 03:40:15;;;;;;;0.00;0.00;;;;;;;16.06;49.92;101232.41;2052276;28;20166;-74
2022/12/11 03:41:21;;;;;;;0.00;0.00;;;;;;;16.07;49.72;101225.78;2055024;28;20042;-73
2022/12/11 03:42:25;;;;;;;0.00;0.00;;;;;;;16.07;49.58;101225.78;2053959;28;20066;-73
2022/12/11 03:43:30;;;;;;;0.00;0.00;;;;;;;16.08;49.68;101224.63;2053002;28;20061;-73
2022/12/11 03:44:34;;;;;;;0.00;0.00;;;;;;;16.07;49.51;101223.88;2053088;28;20144;-75
2022/12/11 03:45:38;;;;;;;0.00;0.00;;;;;;;16.06;49.70;101219.56;2054410;28;20507;-75
2022/12/11 03:46:45;;;;;;;0.00;0.00;;;;;;;16.07;49.70;101226.59;2053740;28;20110;-73
2022/12/11 03:47:51;;;;;;;0.00;0.00;;;;;;;16.04;49.69;101221.88;2052276;28;20055;-73
2022/12/11 03:48:58;;;;;;;0.00;0.00;;;;;;;16.07;49.68;101225.78;2042933;28;20063;-75
2022/12/11 03:50:05;;;;;;;0.00;0.00;;;;;;;16.06;49.70;101213.34;2038958;28;20055;-74
2022/12/11 03:51:08;;;;;;;0.00;0.00;;;;;;;16.02;49.59;101218.72;2048136;28;20059;-75
2022/12/11 03:52:13;;;;;;;0.00;0.00;;;;;;;16.07;49.82;101217.63;2053031;28;20818;-74
2022/12/11 03:53:16;;;;;;;0.00;0.00;;;;;;;16.05;49.65;101218.00;2057651;28;20051;-74
2022/12/11 03:54:20;;;;;;;0.00;0.00;;;;;;;16.05;49.55;101215.25;2051380;28;20524;-73
2022/12/11 03:55:23;;;;;;;0.00;0.00;;;;;;;16.04;49.54;101216.44;2045138;28;20055;-73
2022/12/11 03:56:32;;;;;;;0.00;0.00;;;;;;;16.04;49.60;101210.97;2047590;28;20047;-74
2022/12/11 03:57:36;;;;;;;0.00;0.00;;;;;;;16.05;49.42;101215.25;2060077;28;20046;-75
2022/12/11 03:58:41;;;;;;;0.00;0.00;;;;;;;16.05;49.76;101223.44;2059664;28;20433;-75
2022/12/11 03:59:43;;;;;;;0.00;0.00;;;;;;;16.04;49.79;101216.44;2051976;28;20095;-75
2022/12/11 04:00:46;;;;;;;0.00;0.00;;;;;;;16.05;49.71;101215.25;2044500;28;20051;-75
2022/12/11 04:01:50;;;;;;;0.00;0.00;;;;;;;16.07;49.72;101220.34;2046099;28;20067;-75
2022/12/11 04:04:15;;;;;;;0.00;0.00;;;;;;;16.01;49.71;101211.72;2056059;28;20061;-75
2022/12/11 04:05:17;;;;;;;0.00;0.00;;;;;;;16.04;49.65;101221.88;2052885;28;20054;-75
2022/12/11 04:06:20;;;;;;;0.00;0.00;;;;;;;16.04;49.62;101212.91;2051194;28;20094;-74
2022/12/11 04:07:22;;;;;;;0.00;0.00;;;;;;;16.03;49.63;101209.41;2050449;28;20047;-75
2022/12/11 04:08:25;;;;;;;0.00;0.00;;;;;;;16.05;49.59;101212.53;2051155;28;20198;-74
2022/12/11 04:09:27;;;;;;;0.00;0.00;;;;;;;16.03;49.68;101209.41;2052385;28;20087;-73
2022/12/11 04:10:29;;;;;;;0.00;0.00;;;;;;;16.05;49.63;101209.81;2052099;28;20051;-73
2022/12/11 04:11:34;;;;;;;0.00;0.00;;;;;;;16.03;49.56;101212.13;2051058;28;20058;-73
2022/12/11 04:12:37;;;;;;;0.00;0.00;;;;;;;16.04;49.67;101210.97;2050249;28;20066;-74
2022/12/11 04:13:40;;;;;;;0.00;0.00;;;;;;;16.07;49.58;101220.34;2053121;28;20116;-73
2022/12/11 04:15:00;;;;;;;0.00;0.00;;;;;;;16.04;49.67;101210.97;2058818;28;20157;-74
2022/12/11 04:16:03;;;;;;;;;;;;;;;15.82;50.17;101211.81;2048635;28;20063;-74
2022/12/11 04:17:07;;;;;;;0.00;0.00;;;;;;;15.95;49.88;101217.84;2037963;28;19922;-74
2022/12/11 04:25:11;;;;;;;0.00;0.00;;;;;;;15.88;49.78;101213.06;2023829;29;20056;-73
2022/12/11 04:26:18;;;;;;;0.00;0.00;;;;;;;15.90;49.74;101210.75;2027378;29;20063;-75
2022/12/11 04:28:38;;;;;;;0.00;0.00;;;;;;;15.91;49.71;101206.91;2030559;28;20058;-74
2022/12/11 04:29:40;;;;;;;0.00;0.00;;;;;;;15.91;49.82;101206.09;2033804;29;20119;-74
2022/12/11 04:30:49;;;;;;;0.00;0.00;;;;;;;15.93;49.81;101210.03;2034755;28;20059;-74
2022/12/11 04:31:51;;;;;;;0.00;0.00;;;;;;;15.94;49.87;101205.38;2051723;28;20059;-76
2022/12/11 04:32:55;;;;;;;0.00;0.00;;;;;;;15.96;49.86;101205.78;2052121;28;20059;-75
2022/12/11 04:33:57;;;;;;;0.00;0.00;;;;;;;15.95;49.87;101207.72;2049112;28;20062;-73
2022/12/11 04:35:00;;;;;;;0.00;0.00;;;;;;;15.94;49.76;101206.16;2042810;29;20055;-73
2022/12/11 04:36:01;;;;;;;0.00;0.00;;;;;;;15.96;49.85;101214.75;2043065;28;20535;-74
2022/12/11 04:37:04;;;;;;;0.00;0.00;;;;;;;15.96;49.69;101209.31;2049723;28;20062;-74
2022/12/11 04:38:06;;;;;;;0.00;0.00;;;;;;;15.97;49.79;101213.59;2059715;28;20050;-75
2022/12/11 04:39:09;;;;;;;0.00;0.00;;;;;;;15.97;49.86;101213.59;2059319;28;20085;-75
2022/12/11 04:40:13;;;;;;;0.00;0.00;;;;;;;15.98;49.77;101206.97;2052006;28;20439;-74
2022/12/11 04:41:17;;;;;;;0.00;0.00;;;;;;;15.94;50.21;101206.16;2044808;28;20055;-75
2022/12/11 04:42:19;;;;;;;0.00;0.00;;;;;;;15.97;50.30;101213.59;2051980;28;20401;-74
2022/12/11 04:43:22;;;;;;;0.00;0.00;;;;;;;15.98;49.70;101209.72;2053481;28;20058;-74
2022/12/11 04:44:23;;;;;;;0.00;0.00;;;;;;;15.98;49.76;101211.66;2049350;28;20526;-75
2022/12/11 04:45:26;;;;;;;0.00;0.00;;;;;;;15.93;49.68;101210.03;2050968;28;20438;-74
2022/12/11 04:46:28;;;;;;;0.00;0.00;;;;;;;15.96;49.76;101214.75;2050992;28;20063;-75
2022/12/11 04:47:31;;;;;;;0.00;0.00;;;;;;;15.98;49.88;101206.97;2043851;28;20043;-75
2022/12/11 04:48:35;;;;;;;0.00;0.00;;;;;;;15.99;49.67;101210.50;2050237;28;20051;-75
2022/12/11 04:49:38;;;;;;;0.00;0.00;;;;;;;15.98;49.77;101214.38;2058366;28;20054;-74
2022/12/11 04:50:40;;;;;;;0.00;0.00;;;;;;;15.98;49.85;101211.66;2051502;28;20050;-74
2022/12/11 04:51:43;;;;;;;0.00;0.00;;;;;;;15.97;49.82;101213.59;2051850;28;20058;-74
2022/12/11 04:52:45;;;;;;;0.00;0.00;;;;;;;15.98;49.79;101212.44;2050343;28;20103;-74
2022/12/11 04:53:48;;;;;;;0.00;0.00;;;;;;;15.98;49.79;101209.72;2044542;28;20526;-74
2022/12/11 04:54:50;;;;;;;0.00;0.00;;;;;;;15.98;49.88;101211.66;2042429;28;21357;-74
2022/12/11 04:55:53;;;;;;;0.00;0.00;;;;;;;15.98;49.81;101209.72;2043643;28;20192;-75
2022/12/11 04:56:55;;;;;;;0.00;0.00;;;;;;;15.98;49.87;101217.88;2045249;28;20561;-74
2022/12/11 04:57:57;;;;;;;0.00;0.00;;;;;;;15.96;50.15;101205.78;2052937;28;20071;-74
2022/12/11 04:59:00;;;;;;;0.00;0.00;;;;;;;15.99;49.74;101211.28;2050113;28;20410;-74
2022/12/11 05:00:04;;;;;;;0.00;0.00;;;;;;;15.99;49.46;101205.06;2051636;28;20067;-75
2022/12/11 05:01:07;;;;;;;0.00;0.00;;;;;;;15.94;49.75;101199.91;2050020;28;20050;-74
2022/12/11 05:02:10;;;;;;;0.00;0.00;;;;;;;15.98;49.84;101206.22;2051052;28;20054;-73
2022/12/11 05:03:11;;;;;;;0.00;0.00;;;;;;;15.98;49.77;101206.97;2057630;28;20133;-74
2022/12/11 05:04:16;;;;;;;0.00;0.00;;;;;;;15.96;49.47;101201.13;2060019;28;20608;-74
2022/12/11 05:05:17;;;;;;;0.00;0.00;;;;;;;15.97;49.60;101204.63;2050102;28;20490;-74
2022/12/11 05:06:20;;;;;;;0.00;0.00;;;;;;;15.98;49.70;101204.25;2052930;28;20086;-74
2022/12/11 05:07:22;;;;;;;0.00;0.00;;;;;;;15.98;49.81;101198.81;2051393;28;20055;-74
2022/12/11 05:08:25;;;;;;;0.00;0.00;;;;;;;15.98;49.83;101201.53;2053216;28;20043;-74
2022/12/11 05:09:27;;;;;;;0.00;0.00;;;;;;;15.96;49.80;101198.41;2052274;28;20494;-74
2022/12/11 05:10:30;;;;;;;0.00;0.00;;;;;;;15.98;49.77;101201.53;2051676;28;20066;-74
2022/12/11 05:11:32;;;;;;;0.00;0.00;;;;;;;15.98;49.84;101195.31;2052268;28;20054;-74